sensor_id;sensor_type;location;lat;lon;timestamp;P1;durP1;ratioP1;P2;durP2;ratioP2
77085;SDS011;66014;53.134;18.006;2023-07-16T00:01:54;6.50;;;5.00;;
77085;SDS011;66014;53.134;18.006;2023-07-16T00:04:21;8.50;;;5.10;;
77085;SDS011;66014;53.134;18.006;2023-07-16T00:06:47;9.00;;;5.40;;
77085;SDS011;66014;53.134;18.006;2023-07-16T00:09:13;6.90;;;4.80;;
77085;SDS011;66014;53.134;18.006;2023-07-16T00:11:39;6.70;;;4.90;;
77085;SDS011;66014;53.134;18.006;2023-07-16T00:14:05;7.60;;;5.70;;
77085;SDS011;66014;53.134;18.006;2023-07-16T00:16:31;7.10;;;5.30;;
77085;SDS011;66014;53.134;18.006;2023-07-16T00:18:56;11.80;;;7.50;;
77085;SDS011;66014;53.134;18.006;2023-07-16T00:21:23;72.20;;;32.10;;
77085;SDS011;66014;53.134;18.006;2023-07-16T00:23:49;275.30;;;116.10;;
77085;SDS011;66014;53.134;18.006;2023-07-16T00:26:15;387.80;;;150.00;;
77085;SDS011;66014;53.134;18.006;2023-07-16T00:28:41;498.30;;;229.70;;
77085;SDS011;66014;53.134;18.006;2023-07-16T00:31:07;583.90;;;328.70;;
77085;SDS011;66014;53.134;18.006;2023-07-16T00:33:35;471.20;;;231.70;;
77085;SDS011;66014;53.134;18.006;2023-07-16T00:36:01;406.50;;;165.90;;
77085;SDS011;66014;53.134;18.006;2023-07-16T00:38:27;253.30;;;96.70;;
77085;SDS011;66014;53.134;18.006;2023-07-16T00:40:52;166.80;;;64.10;;
77085;SDS011;66014;53.134;18.006;2023-07-16T00:43:18;122.50;;;44.50;;
77085;SDS011;66014;53.134;18.006;2023-07-16T00:45:45;103.20;;;35.10;;
77085;SDS011;66014;53.134;18.006;2023-07-16T00:48:11;85.80;;;30.40;;
77085;SDS011;66014;53.134;18.006;2023-07-16T00:50:38;77.90;;;27.50;;
77085;SDS011;66014;53.134;18.006;2023-07-16T00:53:06;63.40;;;20.20;;
77085;SDS011;66014;53.134;18.006;2023-07-16T00:55:33;41.50;;;16.20;;
77085;SDS011;66014;53.134;18.006;2023-07-16T00:58:02;32.70;;;13.10;;
77085;SDS011;66014;53.134;18.006;2023-07-16T01:00:31;29.40;;;10.30;;
77085;SDS011;66014;53.134;18.006;2023-07-16T01:03:01;36.50;;;13.00;;
77085;SDS011;66014;53.134;18.006;2023-07-16T01:05:34;28.70;;;11.50;;
77085;SDS011;66014;53.134;18.006;2023-07-16T01:08:06;49.50;;;18.50;;
77085;SDS011;66014;53.134;18.006;2023-07-16T01:10:35;49.20;;;17.70;;
77085;SDS011;66014;53.134;18.006;2023-07-16T01:13:03;39.10;;;15.50;;
77085;SDS011;66014;53.134;18.006;2023-07-16T01:15:30;61.30;;;22.60;;
77085;SDS011;66014;53.134;18.006;2023-07-16T01:17:56;92.30;;;31.40;;
77085;SDS011;66014;53.134;18.006;2023-07-16T01:20:21;127.40;;;42.00;;
77085;SDS011;66014;53.134;18.006;2023-07-16T01:28:32;55.10;;;19.20;;
77085;SDS011;66014;53.134;18.006;2023-07-16T01:31:14;48.10;;;17.50;;
77085;SDS011;66014;53.134;18.006;2023-07-16T01:33:42;45.50;;;16.30;;
77085;SDS011;66014;53.134;18.006;2023-07-16T01:36:08;54.70;;;19.00;;
77085;SDS011;66014;53.134;18.006;2023-07-16T01:38:35;59.40;;;19.30;;
77085;SDS011;66014;53.134;18.006;2023-07-16T01:41:02;69.00;;;21.80;;
77085;SDS011;66014;53.134;18.006;2023-07-16T01:43:27;59.90;;;21.80;;
77085;SDS011;66014;53.134;18.006;2023-07-16T01:45:53;52.70;;;17.70;;
77085;SDS011;66014;53.134;18.006;2023-07-16T01:48:29;41.90;;;15.90;;
77085;SDS011;66014;53.134;18.006;2023-07-16T01:50:57;23.90;;;11.30;;
77085;SDS011;66014;53.134;18.006;2023-07-16T01:53:23;23.40;;;9.60;;
77085;SDS011;66014;53.134;18.006;2023-07-16T01:55:49;18.60;;;8.80;;
77085;SDS011;66014;53.134;18.006;2023-07-16T01:58:15;18.80;;;8.20;;
77085;SDS011;66014;53.134;18.006;2023-07-16T02:00:41;21.50;;;8.90;;
77085;SDS011;66014;53.134;18.006;2023-07-16T02:03:08;15.10;;;7.80;;
77085;SDS011;66014;53.134;18.006;2023-07-16T02:05:33;12.70;;;7.30;;
77085;SDS011;66014;53.134;18.006;2023-07-16T02:07:59;11.20;;;6.40;;
77085;SDS011;66014;53.134;18.006;2023-07-16T02:10:26;8.20;;;5.80;;
77085;SDS011;66014;53.134;18.006;2023-07-16T02:12:51;11.00;;;6.50;;
77085;SDS011;66014;53.134;18.006;2023-07-16T02:15:18;12.20;;;6.60;;
77085;SDS011;66014;53.134;18.006;2023-07-16T02:17:44;11.00;;;6.60;;
77085;SDS011;66014;53.134;18.006;2023-07-16T02:20:11;10.00;;;6.40;;
77085;SDS011;66014;53.134;18.006;2023-07-16T02:22:37;7.40;;;5.50;;
77085;SDS011;66014;53.134;18.006;2023-07-16T02:25:03;8.10;;;5.80;;
77085;SDS011;66014;53.134;18.006;2023-07-16T02:27:29;9.90;;;6.20;;
77085;SDS011;66014;53.134;18.006;2023-07-16T02:29:55;10.40;;;5.70;;
77085;SDS011;66014;53.134;18.006;2023-07-16T02:32:21;8.20;;;5.70;;
77085;SDS011;66014;53.134;18.006;2023-07-16T02:34:47;9.20;;;5.60;;
77085;SDS011;66014;53.134;18.006;2023-07-16T02:37:13;8.30;;;5.80;;
77085;SDS011;66014;53.134;18.006;2023-07-16T02:39:40;8.00;;;5.40;;
77085;SDS011;66014;53.134;18.006;2023-07-16T02:42:07;8.80;;;6.20;;
77085;SDS011;66014;53.134;18.006;2023-07-16T02:44:34;8.50;;;5.60;;
77085;SDS011;66014;53.134;18.006;2023-07-16T02:47:04;9.10;;;6.00;;
77085;SDS011;66014;53.134;18.006;2023-07-16T02:49:29;9.70;;;6.10;;
77085;SDS011;66014;53.134;18.006;2023-07-16T02:51:55;8.10;;;6.00;;
77085;SDS011;66014;53.134;18.006;2023-07-16T02:54:21;10.20;;;5.90;;
77085;SDS011;66014;53.134;18.006;2023-07-16T02:56:47;10.40;;;5.70;;
77085;SDS011;66014;53.134;18.006;2023-07-16T02:59:13;8.00;;;6.00;;
77085;SDS011;66014;53.134;18.006;2023-07-16T03:01:39;9.90;;;6.40;;
77085;SDS011;66014;53.134;18.006;2023-07-16T03:04:04;11.80;;;6.20;;
77085;SDS011;66014;53.134;18.006;2023-07-16T03:06:30;10.40;;;6.00;;
77085;SDS011;66014;53.134;18.006;2023-07-16T03:08:56;7.70;;;5.50;;
77085;SDS011;66014;53.134;18.006;2023-07-16T03:11:22;8.70;;;5.40;;
77085;SDS011;66014;53.134;18.006;2023-07-16T03:13:48;8.50;;;5.40;;
77085;SDS011;66014;53.134;18.006;2023-07-16T03:16:14;8.70;;;5.10;;
77085;SDS011;66014;53.134;18.006;2023-07-16T03:18:40;9.30;;;6.10;;
77085;SDS011;66014;53.134;18.006;2023-07-16T03:21:06;7.30;;;5.60;;
77085;SDS011;66014;53.134;18.006;2023-07-16T03:23:32;11.40;;;5.30;;
77085;SDS011;66014;53.134;18.006;2023-07-16T03:25:57;11.20;;;5.70;;
77085;SDS011;66014;53.134;18.006;2023-07-16T03:28:23;8.70;;;6.00;;
77085;SDS011;66014;53.134;18.006;2023-07-16T03:30:49;8.10;;;5.20;;
77085;SDS011;66014;53.134;18.006;2023-07-16T03:33:16;8.10;;;5.20;;
77085;SDS011;66014;53.134;18.006;2023-07-16T03:35:43;9.30;;;6.00;;
77085;SDS011;66014;53.134;18.006;2023-07-16T03:38:10;7.50;;;4.90;;
77085;SDS011;66014;53.134;18.006;2023-07-16T03:40:36;7.30;;;5.10;;
77085;SDS011;66014;53.134;18.006;2023-07-16T03:43:02;9.20;;;5.40;;
77085;SDS011;66014;53.134;18.006;2023-07-16T03:45:29;11.20;;;5.50;;
77085;SDS011;66014;53.134;18.006;2023-07-16T03:47:54;9.00;;;5.50;;
77085;SDS011;66014;53.134;18.006;2023-07-16T03:50:20;8.60;;;5.50;;
77085;SDS011;66014;53.134;18.006;2023-07-16T03:52:47;8.60;;;5.30;;
77085;SDS011;66014;53.134;18.006;2023-07-16T03:55:13;7.30;;;5.40;;
77085;SDS011;66014;53.134;18.006;2023-07-16T03:57:39;9.10;;;5.30;;
77085;SDS011;66014;53.134;18.006;2023-07-16T04:00:06;7.30;;;5.00;;
77085;SDS011;66014;53.134;18.006;2023-07-16T04:02:35;9.70;;;4.80;;
77085;SDS011;66014;53.134;18.006;2023-07-16T04:05:03;7.50;;;4.90;;
77085;SDS011;66014;53.134;18.006;2023-07-16T04:07:29;7.60;;;5.10;;
77085;SDS011;66014;53.134;18.006;2023-07-16T04:09:55;7.90;;;4.50;;
77085;SDS011;66014;53.134;18.006;2023-07-16T04:12:21;9.20;;;5.30;;
77085;SDS011;66014;53.134;18.006;2023-07-16T04:14:47;7.10;;;5.10;;
77085;SDS011;66014;53.134;18.006;2023-07-16T04:17:13;8.40;;;4.90;;
77085;SDS011;66014;53.134;18.006;2023-07-16T04:19:39;6.80;;;4.60;;
77085;SDS011;66014;53.134;18.006;2023-07-16T04:22:05;7.90;;;4.60;;
77085;SDS011;66014;53.134;18.006;2023-07-16T04:24:31;8.50;;;4.90;;
77085;SDS011;66014;53.134;18.006;2023-07-16T04:26:57;7.10;;;4.90;;
77085;SDS011;66014;53.134;18.006;2023-07-16T04:29:24;6.80;;;4.70;;
77085;SDS011;66014;53.134;18.006;2023-07-16T04:31:50;8.80;;;5.30;;
77085;SDS011;66014;53.134;18.006;2023-07-16T04:34:16;8.60;;;4.80;;
77085;SDS011;66014;53.134;18.006;2023-07-16T04:36:42;9.80;;;4.30;;
77085;SDS011;66014;53.134;18.006;2023-07-16T04:39:09;6.40;;;4.10;;
77085;SDS011;66014;53.134;18.006;2023-07-16T04:41:34;8.40;;;4.50;;
77085;SDS011;66014;53.134;18.006;2023-07-16T04:44:01;5.70;;;4.40;;
77085;SDS011;66014;53.134;18.006;2023-07-16T04:46:27;6.50;;;4.30;;
77085;SDS011;66014;53.134;18.006;2023-07-16T04:48:53;8.70;;;4.80;;
77085;SDS011;66014;53.134;18.006;2023-07-16T04:51:19;7.50;;;5.30;;
77085;SDS011;66014;53.134;18.006;2023-07-16T04:53:49;8.30;;;5.00;;
77085;SDS011;66014;53.134;18.006;2023-07-16T04:56:15;5.50;;;4.50;;
77085;SDS011;66014;53.134;18.006;2023-07-16T04:58:42;6.20;;;4.20;;
77085;SDS011;66014;53.134;18.006;2023-07-16T05:01:08;8.40;;;4.50;;
77085;SDS011;66014;53.134;18.006;2023-07-16T05:03:37;8.30;;;4.70;;
77085;SDS011;66014;53.134;18.006;2023-07-16T05:06:03;9.20;;;4.60;;
77085;SDS011;66014;53.134;18.006;2023-07-16T05:08:30;7.00;;;4.80;;
77085;SDS011;66014;53.134;18.006;2023-07-16T05:10:58;8.50;;;4.80;;
77085;SDS011;66014;53.134;18.006;2023-07-16T05:13:24;7.10;;;4.60;;
77085;SDS011;66014;53.134;18.006;2023-07-16T05:15:51;8.00;;;4.90;;
77085;SDS011;66014;53.134;18.006;2023-07-16T05:18:17;9.20;;;4.40;;
77085;SDS011;66014;53.134;18.006;2023-07-16T05:20:48;7.60;;;4.00;;
77085;SDS011;66014;53.134;18.006;2023-07-16T05:25:48;7.10;;;4.30;;
77085;SDS011;66014;53.134;18.006;2023-07-16T05:28:20;6.10;;;4.00;;
77085;SDS011;66014;53.134;18.006;2023-07-16T05:30:46;7.50;;;4.50;;
77085;SDS011;66014;53.134;18.006;2023-07-16T05:33:13;7.10;;;4.50;;
77085;SDS011;66014;53.134;18.006;2023-07-16T05:35:39;5.90;;;4.20;;
77085;SDS011;66014;53.134;18.006;2023-07-16T05:38:06;6.30;;;3.80;;
77085;SDS011;66014;53.134;18.006;2023-07-16T05:40:32;6.00;;;4.00;;
77085;SDS011;66014;53.134;18.006;2023-07-16T05:43:06;6.40;;;3.70;;
77085;SDS011;66014;53.134;18.006;2023-07-16T05:45:33;6.50;;;3.60;;
77085;SDS011;66014;53.134;18.006;2023-07-16T05:48:01;5.90;;;3.90;;
77085;SDS011;66014;53.134;18.006;2023-07-16T05:50:45;5.10;;;3.70;;
77085;SDS011;66014;53.134;18.006;2023-07-16T05:53:11;6.30;;;3.90;;
77085;SDS011;66014;53.134;18.006;2023-07-16T05:55:39;7.00;;;3.70;;
77085;SDS011;66014;53.134;18.006;2023-07-16T05:58:25;6.20;;;3.60;;
77085;SDS011;66014;53.134;18.006;2023-07-16T06:00:53;6.20;;;3.80;;
77085;SDS011;66014;53.134;18.006;2023-07-16T06:03:23;5.50;;;3.70;;
77085;SDS011;66014;53.134;18.006;2023-07-16T06:05:50;5.00;;;3.90;;
77085;SDS011;66014;53.134;18.006;2023-07-16T06:08:21;7.70;;;3.50;;
77085;SDS011;66014;53.134;18.006;2023-07-16T06:10:48;7.00;;;3.70;;
77085;SDS011;66014;53.134;18.006;2023-07-16T06:13:15;4.70;;;3.70;;
77085;SDS011;66014;53.134;18.006;2023-07-16T06:15:43;8.30;;;4.10;;
77085;SDS011;66014;53.134;18.006;2023-07-16T06:18:13;5.50;;;3.80;;
77085;SDS011;66014;53.134;18.006;2023-07-16T06:20:43;12.10;;;3.70;;
77085;SDS011;66014;53.134;18.006;2023-07-16T06:23:12;7.30;;;3.40;;
77085;SDS011;66014;53.134;18.006;2023-07-16T06:25:40;5.90;;;3.90;;
77085;SDS011;66014;53.134;18.006;2023-07-16T06:28:10;5.40;;;3.70;;
77085;SDS011;66014;53.134;18.006;2023-07-16T06:30:37;7.00;;;3.50;;
77085;SDS011;66014;53.134;18.006;2023-07-16T06:33:05;5.20;;;3.10;;
77085;SDS011;66014;53.134;18.006;2023-07-16T06:35:33;5.90;;;3.10;;
77085;SDS011;66014;53.134;18.006;2023-07-16T06:37:59;4.90;;;2.90;;
77085;SDS011;66014;53.134;18.006;2023-07-16T06:40:28;5.60;;;3.10;;
77085;SDS011;66014;53.134;18.006;2023-07-16T06:42:57;4.30;;;3.00;;
77085;SDS011;66014;53.134;18.006;2023-07-16T06:45:23;8.00;;;2.70;;
77085;SDS011;66014;53.134;18.006;2023-07-16T06:47:58;5.40;;;2.70;;
77085;SDS011;66014;53.134;18.006;2023-07-16T06:50:26;4.90;;;2.90;;
77085;SDS011;66014;53.134;18.006;2023-07-16T06:52:52;6.20;;;2.90;;
77085;SDS011;66014;53.134;18.006;2023-07-16T06:55:22;6.30;;;2.80;;
77085;SDS011;66014;53.134;18.006;2023-07-16T06:57:49;15.10;;;3.10;;
77085;SDS011;66014;53.134;18.006;2023-07-16T07:00:19;5.70;;;2.90;;
77085;SDS011;66014;53.134;18.006;2023-07-16T07:02:45;5.30;;;2.80;;
77085;SDS011;66014;53.134;18.006;2023-07-16T07:05:11;4.60;;;2.40;;
77085;SDS011;66014;53.134;18.006;2023-07-16T07:07:37;5.00;;;2.30;;
77085;SDS011;66014;53.134;18.006;2023-07-16T07:10:03;3.10;;;2.20;;
77085;SDS011;66014;53.134;18.006;2023-07-16T07:12:29;4.10;;;1.90;;
77085;SDS011;66014;53.134;18.006;2023-07-16T07:14:56;5.90;;;2.30;;
77085;SDS011;66014;53.134;18.006;2023-07-16T07:17:21;4.40;;;2.10;;
77085;SDS011;66014;53.134;18.006;2023-07-16T07:19:47;4.20;;;2.00;;
77085;SDS011;66014;53.134;18.006;2023-07-16T07:22:13;3.70;;;2.20;;
77085;SDS011;66014;53.134;18.006;2023-07-16T07:24:39;3.90;;;2.10;;
77085;SDS011;66014;53.134;18.006;2023-07-16T07:27:06;3.50;;;1.80;;
77085;SDS011;66014;53.134;18.006;2023-07-16T07:29:31;3.10;;;1.90;;
77085;SDS011;66014;53.134;18.006;2023-07-16T07:32:02;3.20;;;1.70;;
77085;SDS011;66014;53.134;18.006;2023-07-16T07:34:29;4.70;;;1.70;;
77085;SDS011;66014;53.134;18.006;2023-07-16T07:36:55;4.80;;;1.90;;
77085;SDS011;66014;53.134;18.006;2023-07-16T07:39:20;2.60;;;1.90;;
77085;SDS011;66014;53.134;18.006;2023-07-16T07:41:46;3.00;;;2.00;;
77085;SDS011;66014;53.134;18.006;2023-07-16T07:44:12;2.70;;;1.90;;
77085;SDS011;66014;53.134;18.006;2023-07-16T07:46:38;3.10;;;1.80;;
77085;SDS011;66014;53.134;18.006;2023-07-16T07:49:04;3.70;;;1.60;;
77085;SDS011;66014;53.134;18.006;2023-07-16T07:51:31;4.00;;;1.60;;
77085;SDS011;66014;53.134;18.006;2023-07-16T07:53:57;2.70;;;1.70;;
77085;SDS011;66014;53.134;18.006;2023-07-16T07:56:25;2.50;;;1.60;;
77085;SDS011;66014;53.134;18.006;2023-07-16T07:58:51;3.60;;;1.60;;
77085;SDS011;66014;53.134;18.006;2023-07-16T08:01:16;3.00;;;1.70;;
77085;SDS011;66014;53.134;18.006;2023-07-16T08:03:42;3.60;;;2.10;;
77085;SDS011;66014;53.134;18.006;2023-07-16T08:06:09;4.00;;;1.80;;
77085;SDS011;66014;53.134;18.006;2023-07-16T08:08:39;3.10;;;1.60;;
77085;SDS011;66014;53.134;18.006;2023-07-16T08:11:07;2.50;;;1.40;;
77085;SDS011;66014;53.134;18.006;2023-07-16T08:13:33;2.80;;;1.50;;
77085;SDS011;66014;53.134;18.006;2023-07-16T08:15:59;3.10;;;1.30;;
77085;SDS011;66014;53.134;18.006;2023-07-16T08:18:25;2.80;;;1.50;;
77085;SDS011;66014;53.134;18.006;2023-07-16T08:20:51;2.60;;;1.30;;
77085;SDS011;66014;53.134;18.006;2023-07-16T08:23:17;2.80;;;1.20;;
77085;SDS011;66014;53.134;18.006;2023-07-16T08:25:43;4.40;;;1.40;;
77085;SDS011;66014;53.134;18.006;2023-07-16T08:28:09;2.70;;;1.30;;
77085;SDS011;66014;53.134;18.006;2023-07-16T08:30:37;2.30;;;1.30;;
77085;SDS011;66014;53.134;18.006;2023-07-16T08:33:03;2.20;;;1.20;;
77085;SDS011;66014;53.134;18.006;2023-07-16T08:35:28;1.50;;;0.90;;
77085;SDS011;66014;53.134;18.006;2023-07-16T08:37:54;2.30;;;1.20;;
77085;SDS011;66014;53.134;18.006;2023-07-16T08:40:20;2.40;;;1.10;;
77085;SDS011;66014;53.134;18.006;2023-07-16T08:42:48;2.30;;;1.20;;
77085;SDS011;66014;53.134;18.006;2023-07-16T08:45:16;2.10;;;0.90;;
77085;SDS011;66014;53.134;18.006;2023-07-16T08:47:43;2.30;;;1.00;;
77085;SDS011;66014;53.134;18.006;2023-07-16T08:50:09;2.10;;;1.00;;
77085;SDS011;66014;53.134;18.006;2023-07-16T08:52:36;2.30;;;1.00;;
77085;SDS011;66014;53.134;18.006;2023-07-16T08:55:04;2.30;;;1.10;;
77085;SDS011;66014;53.134;18.006;2023-07-16T08:57:31;2.40;;;1.20;;
77085;SDS011;66014;53.134;18.006;2023-07-16T08:59:57;2.30;;;1.20;;
77085;SDS011;66014;53.134;18.006;2023-07-16T09:02:23;3.40;;;1.10;;
77085;SDS011;66014;53.134;18.006;2023-07-16T09:04:49;2.90;;;1.10;;
77085;SDS011;66014;53.134;18.006;2023-07-16T09:07:17;2.50;;;1.20;;
77085;SDS011;66014;53.134;18.006;2023-07-16T09:09:43;2.00;;;1.20;;
77085;SDS011;66014;53.134;18.006;2023-07-16T09:12:12;2.30;;;1.30;;
77085;SDS011;66014;53.134;18.006;2023-07-16T09:14:40;2.80;;;1.30;;
77085;SDS011;66014;53.134;18.006;2023-07-16T09:17:07;2.60;;;1.40;;
77085;SDS011;66014;53.134;18.006;2023-07-16T09:19:33;2.90;;;1.20;;
77085;SDS011;66014;53.134;18.006;2023-07-16T09:21:58;2.00;;;1.10;;
77085;SDS011;66014;53.134;18.006;2023-07-16T09:24:25;3.70;;;1.40;;
77085;SDS011;66014;53.134;18.006;2023-07-16T09:26:52;2.70;;;1.20;;
77085;SDS011;66014;53.134;18.006;2023-07-16T09:29:19;3.60;;;1.40;;
77085;SDS011;66014;53.134;18.006;2023-07-16T09:32:01;2.90;;;1.30;;
77085;SDS011;66014;53.134;18.006;2023-07-16T09:34:30;2.20;;;1.20;;
77085;SDS011;66014;53.134;18.006;2023-07-16T09:36:57;3.50;;;1.50;;
77085;SDS011;66014;53.134;18.006;2023-07-16T09:39:24;3.00;;;1.60;;
77085;SDS011;66014;53.134;18.006;2023-07-16T09:41:51;2.20;;;1.20;;
77085;SDS011;66014;53.134;18.006;2023-07-16T09:44:18;4.20;;;2.00;;
77085;SDS011;66014;53.134;18.006;2023-07-16T09:46:49;3.40;;;1.50;;
77085;SDS011;66014;53.134;18.006;2023-07-16T09:49:15;2.90;;;1.40;;
77085;SDS011;66014;53.134;18.006;2023-07-16T09:51:41;2.70;;;1.40;;
77085;SDS011;66014;53.134;18.006;2023-07-16T09:54:08;4.10;;;1.40;;
77085;SDS011;66014;53.134;18.006;2023-07-16T09:56:49;4.10;;;1.50;;
77085;SDS011;66014;53.134;18.006;2023-07-16T09:59:20;2.90;;;1.40;;
77085;SDS011;66014;53.134;18.006;2023-07-16T10:01:49;2.30;;;1.50;;
77085;SDS011;66014;53.134;18.006;2023-07-16T10:04:17;2.50;;;1.50;;
77085;SDS011;66014;53.134;18.006;2023-07-16T10:06:51;3.30;;;1.60;;
77085;SDS011;66014;53.134;18.006;2023-07-16T10:12:22;2.80;;;1.50;;
77085;SDS011;66014;53.134;18.006;2023-07-16T10:14:54;2.90;;;1.50;;
77085;SDS011;66014;53.134;18.006;2023-07-16T10:17:24;2.90;;;1.60;;
77085;SDS011;66014;53.134;18.006;2023-07-16T10:22:33;3.60;;;1.80;;
77085;SDS011;66014;53.134;18.006;2023-07-16T10:25:01;4.70;;;1.70;;
77085;SDS011;66014;53.134;18.006;2023-07-16T10:27:31;3.20;;;1.80;;
77085;SDS011;66014;53.134;18.006;2023-07-16T10:29:59;2.70;;;1.60;;
77085;SDS011;66014;53.134;18.006;2023-07-16T10:32:29;3.50;;;2.10;;
77085;SDS011;66014;53.134;18.006;2023-07-16T10:34:56;3.40;;;1.70;;
77085;SDS011;66014;53.134;18.006;2023-07-16T10:37:23;2.90;;;1.80;;
77085;SDS011;66014;53.134;18.006;2023-07-16T10:39:50;2.80;;;1.80;;
77085;SDS011;66014;53.134;18.006;2023-07-16T10:42:22;3.20;;;1.80;;
77085;SDS011;66014;53.134;18.006;2023-07-16T10:44:49;2.80;;;1.80;;
77085;SDS011;66014;53.134;18.006;2023-07-16T10:47:24;4.40;;;2.00;;
77085;SDS011;66014;53.134;18.006;2023-07-16T10:49:57;3.10;;;1.80;;
77085;SDS011;66014;53.134;18.006;2023-07-16T10:52:24;4.80;;;2.50;;
77085;SDS011;66014;53.134;18.006;2023-07-16T10:54:50;4.80;;;2.10;;
77085;SDS011;66014;53.134;18.006;2023-07-16T10:59:58;4.40;;;2.20;;
77085;SDS011;66014;53.134;18.006;2023-07-16T11:02:27;3.20;;;2.00;;
77085;SDS011;66014;53.134;18.006;2023-07-16T11:04:53;3.70;;;1.90;;
77085;SDS011;66014;53.134;18.006;2023-07-16T11:07:19;3.90;;;1.80;;
77085;SDS011;66014;53.134;18.006;2023-07-16T11:09:46;3.90;;;1.80;;
77085;SDS011;66014;53.134;18.006;2023-07-16T11:12:15;8.90;;;1.90;;
77085;SDS011;66014;53.134;18.006;2023-07-16T11:14:46;2.80;;;2.00;;
77085;SDS011;66014;53.134;18.006;2023-07-16T11:17:13;3.10;;;1.80;;
77085;SDS011;66014;53.134;18.006;2023-07-16T11:19:40;2.70;;;1.70;;
77085;SDS011;66014;53.134;18.006;2023-07-16T11:22:08;3.30;;;1.70;;
77085;SDS011;66014;53.134;18.006;2023-07-16T11:24:48;2.60;;;1.40;;
77085;SDS011;66014;53.134;18.006;2023-07-16T11:29:52;2.00;;;1.50;;
77085;SDS011;66014;53.134;18.006;2023-07-16T11:32:29;2.00;;;1.50;;
77085;SDS011;66014;53.134;18.006;2023-07-16T11:35:14;2.60;;;1.50;;
77085;SDS011;66014;53.134;18.006;2023-07-16T11:37:49;2.20;;;1.40;;
77085;SDS011;66014;53.134;18.006;2023-07-16T11:40:16;2.30;;;1.30;;
77085;SDS011;66014;53.134;18.006;2023-07-16T11:42:43;2.60;;;1.30;;
77085;SDS011;66014;53.134;18.006;2023-07-16T11:47:46;2.30;;;1.50;;
77085;SDS011;66014;53.134;18.006;2023-07-16T11:50:13;2.10;;;1.30;;
77085;SDS011;66014;53.134;18.006;2023-07-16T11:52:40;2.70;;;1.40;;
77085;SDS011;66014;53.134;18.006;2023-07-16T11:55:07;2.80;;;1.50;;
77085;SDS011;66014;53.134;18.006;2023-07-16T11:57:43;2.30;;;1.40;;
77085;SDS011;66014;53.134;18.006;2023-07-16T12:00:09;4.00;;;1.40;;
77085;SDS011;66014;53.134;18.006;2023-07-16T12:02:35;2.20;;;1.30;;
77085;SDS011;66014;53.134;18.006;2023-07-16T12:05:01;1.90;;;1.20;;
77085;SDS011;66014;53.134;18.006;2023-07-16T12:07:30;2.30;;;1.30;;
77085;SDS011;66014;53.134;18.006;2023-07-16T12:10:03;2.40;;;1.20;;
77085;SDS011;66014;53.134;18.006;2023-07-16T12:12:30;2.40;;;1.40;;
77085;SDS011;66014;53.134;18.006;2023-07-16T12:14:57;2.50;;;1.30;;
77085;SDS011;66014;53.134;18.006;2023-07-16T12:17:23;2.20;;;1.40;;
77085;SDS011;66014;53.134;18.006;2023-07-16T12:19:51;2.20;;;1.30;;
77085;SDS011;66014;53.134;18.006;2023-07-16T12:22:17;2.40;;;1.40;;
77085;SDS011;66014;53.134;18.006;2023-07-16T12:24:44;2.20;;;1.20;;
77085;SDS011;66014;53.134;18.006;2023-07-16T12:27:11;2.00;;;1.30;;
77085;SDS011;66014;53.134;18.006;2023-07-16T12:29:37;2.80;;;1.50;;
77085;SDS011;66014;53.134;18.006;2023-07-16T12:32:02;2.20;;;1.50;;
77085;SDS011;66014;53.134;18.006;2023-07-16T12:34:31;2.60;;;1.60;;
77085;SDS011;66014;53.134;18.006;2023-07-16T12:39:48;3.70;;;1.40;;
77085;SDS011;66014;53.134;18.006;2023-07-16T12:42:14;2.50;;;1.60;;
77085;SDS011;66014;53.134;18.006;2023-07-16T12:44:43;3.00;;;1.60;;
77085;SDS011;66014;53.134;18.006;2023-07-16T12:47:09;3.30;;;1.60;;
77085;SDS011;66014;53.134;18.006;2023-07-16T12:49:40;3.00;;;1.40;;
77085;SDS011;66014;53.134;18.006;2023-07-16T12:52:06;2.30;;;1.70;;
77085;SDS011;66014;53.134;18.006;2023-07-16T12:54:32;2.30;;;1.50;;
77085;SDS011;66014;53.134;18.006;2023-07-16T12:56:58;2.50;;;1.50;;
77085;SDS011;66014;53.134;18.006;2023-07-16T12:59:23;3.20;;;1.60;;
77085;SDS011;66014;53.134;18.006;2023-07-16T13:01:50;2.20;;;1.30;;
77085;SDS011;66014;53.134;18.006;2023-07-16T13:06:45;2.70;;;1.40;;
77085;SDS011;66014;53.134;18.006;2023-07-16T13:09:15;3.10;;;1.90;;
77085;SDS011;66014;53.134;18.006;2023-07-16T13:11:42;3.10;;;1.70;;
77085;SDS011;66014;53.134;18.006;2023-07-16T13:14:08;2.90;;;1.60;;
77085;SDS011;66014;53.134;18.006;2023-07-16T13:16:34;3.40;;;1.80;;
77085;SDS011;66014;53.134;18.006;2023-07-16T13:19:00;2.50;;;1.50;;
77085;SDS011;66014;53.134;18.006;2023-07-16T13:21:27;2.40;;;1.80;;
77085;SDS011;66014;53.134;18.006;2023-07-16T13:23:56;2.90;;;1.80;;
77085;SDS011;66014;53.134;18.006;2023-07-16T13:26:33;2.70;;;1.70;;
77085;SDS011;66014;53.134;18.006;2023-07-16T13:29:11;2.80;;;1.70;;
77085;SDS011;66014;53.134;18.006;2023-07-16T13:31:37;3.40;;;1.70;;
77085;SDS011;66014;53.134;18.006;2023-07-16T13:34:03;4.30;;;1.70;;
77085;SDS011;66014;53.134;18.006;2023-07-16T13:36:29;3.00;;;1.90;;
77085;SDS011;66014;53.134;18.006;2023-07-16T13:38:55;3.10;;;1.70;;
77085;SDS011;66014;53.134;18.006;2023-07-16T13:41:21;2.70;;;1.60;;
77085;SDS011;66014;53.134;18.006;2023-07-16T13:43:46;3.10;;;1.70;;
77085;SDS011;66014;53.134;18.006;2023-07-16T13:46:12;3.00;;;1.50;;
77085;SDS011;66014;53.134;18.006;2023-07-16T13:48:38;3.40;;;1.80;;
77085;SDS011;66014;53.134;18.006;2023-07-16T13:51:05;4.30;;;1.60;;
77085;SDS011;66014;53.134;18.006;2023-07-16T13:53:31;2.50;;;1.60;;
77085;SDS011;66014;53.134;18.006;2023-07-16T13:58:52;3.50;;;1.70;;
77085;SDS011;66014;53.134;18.006;2023-07-16T14:01:22;2.60;;;1.60;;
77085;SDS011;66014;53.134;18.006;2023-07-16T14:06:22;4.60;;;1.80;;
77085;SDS011;66014;53.134;18.006;2023-07-16T14:08:48;2.40;;;1.30;;
77085;SDS011;66014;53.134;18.006;2023-07-16T14:11:15;2.20;;;1.50;;
77085;SDS011;66014;53.134;18.006;2023-07-16T14:13:44;8.90;;;1.90;;
77085;SDS011;66014;53.134;18.006;2023-07-16T14:16:10;2.90;;;1.60;;
77085;SDS011;66014;53.134;18.006;2023-07-16T14:18:36;2.40;;;1.50;;
77085;SDS011;66014;53.134;18.006;2023-07-16T14:21:02;1.80;;;1.30;;
77085;SDS011;66014;53.134;18.006;2023-07-16T14:23:31;2.90;;;1.50;;
77085;SDS011;66014;53.134;18.006;2023-07-16T14:25:57;2.40;;;1.50;;
77085;SDS011;66014;53.134;18.006;2023-07-16T14:28:23;2.50;;;1.60;;
77085;SDS011;66014;53.134;18.006;2023-07-16T14:30:49;2.80;;;1.40;;
77085;SDS011;66014;53.134;18.006;2023-07-16T14:33:15;2.10;;;1.40;;
77085;SDS011;66014;53.134;18.006;2023-07-16T14:35:40;3.00;;;1.70;;
77085;SDS011;66014;53.134;18.006;2023-07-16T14:38:06;3.10;;;1.70;;
77085;SDS011;66014;53.134;18.006;2023-07-16T14:40:32;2.70;;;1.80;;
77085;SDS011;66014;53.134;18.006;2023-07-16T14:42:58;3.90;;;1.70;;
77085;SDS011;66014;53.134;18.006;2023-07-16T14:45:24;3.80;;;1.50;;
77085;SDS011;66014;53.134;18.006;2023-07-16T14:47:50;2.50;;;1.70;;
77085;SDS011;66014;53.134;18.006;2023-07-16T14:50:16;4.60;;;1.60;;
77085;SDS011;66014;53.134;18.006;2023-07-16T14:52:42;3.00;;;1.60;;
77085;SDS011;66014;53.134;18.006;2023-07-16T14:55:08;2.40;;;1.60;;
77085;SDS011;66014;53.134;18.006;2023-07-16T14:57:34;2.50;;;1.60;;
77085;SDS011;66014;53.134;18.006;2023-07-16T15:00:00;7.00;;;1.80;;
77085;SDS011;66014;53.134;18.006;2023-07-16T15:02:25;3.10;;;1.60;;
77085;SDS011;66014;53.134;18.006;2023-07-16T15:04:54;4.40;;;1.70;;